Time;durP1;ratioP1;P1;durP2;ratioP2;P2;SDS_P1;SDS_P2;PMS_P1;PMS_P2;Temp;Humidity;BMP_temperature;BMP_pressure;BME280_temperature;BME280_humidity;BME280_pressure;Samples;Min_cycle;Max_cycle;Signal;HPM_P1;HPM_P2
2022/12/19 00:00:29;;;;;;;;;;;;;;;25.17;30.24;102836.69;5015340;28;1986;-19
2022/12/19 00:02:54;;;;;;;;;;;;;;;25.22;30.13;102836.34;4998978;28;898;-19
2022/12/19 00:05:21;;;;;;;;;;;;;;;25.33;30.15;102840.88;5001882;28;1112;-19
2022/12/19 00:07:47;;;;;;;;;;;;;;;25.13;30.50;102843.28;5019159;28;1017;-19
2022/12/19 00:10:12;;;;;;;;;;;;;;;25.13;30.17;102843.28;5018452;28;1072;-19
2022/12/19 00:12:37;;;;;;;;;;;;;;;25.29;29.86;102839.41;5006683;28;2485;-19
2022/12/19 00:15:03;;;;;;;;;;;;;;;25.26;30.39;102850.41;5012670;28;1048;-19
2022/12/19 00:17:28;;;;;;;;;;;;;;;25.13;30.17;102854.06;5018450;28;1132;-19
2022/12/19 00:19:53;;;;;;;;;;;;;;;25.13;30.19;102845.13;5018295;28;1910;-19
2022/12/19 00:22:19;;;;;;;;;;;;;;;25.33;29.83;102857.03;5018582;28;1143;-19
2022/12/19 00:24:44;;;;;;;;;;;;;;;25.37;29.92;102860.38;5018481;28;1043;-19
2022/12/19 00:27:09;;;;;;;;;;;;;;;25.26;30.18;102872.81;5018478;28;831;-19
2022/12/19 00:29:35;;;;;;;;;;;;;;;25.09;30.52;102867.91;5003976;28;1107;-19
2022/12/19 00:32:00;;;;;;;;;;;;;;;25.26;30.27;102866.56;4998697;28;1160;-19
2022/12/19 00:34:25;;;;;;;;;;;;;;;25.22;30.26;102875.88;4999161;28;1136;-18
2022/12/19 00:36:50;;;;;;;;;;;;;;;24.49;31.50;102853.38;5006408;28;1124;-19
2022/12/19 00:39:16;;;;;;;;;;;;;;;25.09;30.35;102867.91;5017490;28;1965;-19
2022/12/19 00:41:41;;;;;;;;;;;;;;;25.26;30.29;102870.13;5013635;28;2292;-19
2022/12/19 00:44:08;;;;;;;;;;;;;;;25.25;30.18;102862.16;5012404;28;1184;-19
2022/12/19 00:46:33;;;;;;;;;;;;;;;25.25;30.15;102856.78;5017928;28;1179;-19
2022/12/19 00:48:59;;;;;;;;;;;;;;;25.36;29.87;102859.50;5018209;28;1016;-19
2022/12/19 00:51:25;;;;;;;;;;;;;;;25.10;30.51;102853.44;5017661;28;857;-19
2022/12/19 00:53:51;;;;;;;;;;;;;;;25.09;30.08;102836.41;5003454;28;1103;-19
2022/12/19 00:56:18;;;;;;;;;;;;;;;25.18;29.96;102838.41;5017901;28;1179;-19
2022/12/19 00:58:43;;;;;;;;;;;;;;;25.19;30.37;102839.28;5017791;28;1953;-19
2022/12/19 01:01:09;;;;;;;;;;;;;;;25.12;30.08;102849.66;5018126;28;1033;-19
2022/12/19 01:03:34;;;;;;;;;;;;;;;25.15;30.13;102835.97;5017620;28;895;-19
2022/12/19 01:06:00;;;;;;;;;;;;;;;25.29;29.98;102829.47;5018241;28;1057;-19
2022/12/19 01:08:25;;;;;;;;;;;;;;;25.23;30.30;102843.44;5017095;28;1060;-19
2022/12/19 01:10:50;;;;;;;;;;;;;;;25.14;30.21;102846.84;5017844;28;1132;-19
2022/12/19 01:13:16;;;;;;;;;;;;;;;25.25;30.21;102849.56;5014630;28;2535;-19
2022/12/19 01:15:42;;;;;;;;;;;;;;;25.03;30.66;102844.97;5017128;28;878;-19
2022/12/19 01:18:09;;;;;;;;;;;;;;;25.01;30.50;102853.16;5002670;28;1114;-19
2022/12/19 01:20:36;;;;;;;;;;;;;;;25.17;30.29;102860.09;4997530;28;1985;-19
2022/12/19 01:23:01;;;;;;;;;;;;;;;25.27;30.05;102852.16;5011816;28;1153;-19
2022/12/19 01:25:27;;;;;;;;;;;;;;;24.88;30.60;102852.34;5017532;28;1152;-18
2022/12/19 01:27:53;;;;;;;;;;;;;;;25.01;30.35;102866.63;5017007;28;954;-19
2022/12/19 01:30:18;;;;;;;;;;;;;;;25.18;30.18;102861.78;5017402;28;1041;-19
2022/12/19 01:32:43;;;;;;;;;;;;;;;25.27;30.23;102855.72;5017466;28;1043;-19
2022/12/19 01:35:09;;;;;;;;;;;;;;;24.97;30.92;102872.38;5017084;28;1183;-19
2022/12/19 01:37:34;;;;;;;;;;;;;;;24.97;30.57;102865.16;5016949;28;1152;-18
2022/12/19 01:39:59;;;;;;;;;;;;;;;25.12;30.37;102870.34;5016837;28;1886;-19
2022/12/19 01:42:25;;;;;;;;;;;;;;;25.24;30.51;102855.09;5007645;28;2260;-18
2022/12/19 01:45:08;;;;;;;;;;;;;;;24.94;30.82;102863.53;5016726;28;1167;-19
2022/12/19 01:47:53;;;;;;;;;;;;;;;25.00;30.63;102869.44;5003268;28;1024;-19
2022/12/19 01:50:19;;;;;;;;;;;;;;;25.14;30.08;102871.09;5015288;28;1023;-19
2022/12/19 01:52:45;;;;;;;;;;;;;;;24.86;30.73;102873.16;5016662;28;1172;-19
2022/12/19 01:55:10;;;;;;;;;;;;;;;24.90;30.59;102870.16;5017046;28;1068;-18
2022/12/19 01:57:35;;;;;;;;;;;;;;;25.05;30.18;102876.22;5016945;28;1072;-18
2022/12/19 02:00:03;;;;;;;;;;;;;;;25.14;30.24;102888.09;5016852;28;1951;-19
2022/12/19 02:02:32;;;;;;;;;;;;;;;24.85;30.91;102888.44;5016222;28;1016;-19
2022/12/19 02:04:57;;;;;;;;;;;;;;;24.89;30.33;102883.69;5016513;28;1112;-19
2022/12/19 02:07:22;;;;;;;;;;;;;;;25.02;30.56;102879.13;5016641;28;1131;-18
2022/12/19 02:09:48;;;;;;;;;;;;;;;25.14;30.59;102884.56;5003503;28;1148;-19
2022/12/19 02:12:13;;;;;;;;;;;;;;;24.86;31.05;102898.22;5007544;28;1830;-19
2022/12/19 02:14:39;;;;;;;;;;;;;;;24.94;30.45;102895.84;5008485;28;1001;-19
2022/12/19 02:17:19;;;;;;;;;;;;;;;25.06;30.42;102898.59;5016251;28;1099;-19
2022/12/19 02:20:00;;;;;;;;;;;;;;;24.96;30.85;102897.59;5015871;28;1906;-19
2022/12/19 02:22:28;;;;;;;;;;;;;;;24.67;31.13;102896.06;5016484;28;1017;-18
2022/12/19 02:25:08;;;;;;;;;;;;;;;24.90;30.78;102906.94;5016068;28;1176;-19
2022/12/19 02:27:52;;;;;;;;;;;;;;;25.01;30.73;102912.41;5015854;28;985;-19
2022/12/19 02:30:34;;;;;;;;;;;;;;;24.88;31.01;102912.44;5003607;28;1001;-19
2022/12/19 02:33:23;;;;;;;;;;;;;;;24.90;30.85;102912.31;5014887;28;1091;-19
2022/12/19 02:35:52;;;;;;;;;;;;;;;25.03;30.70;102918.53;5013233;28;1443;-19
2022/12/19 02:38:25;;;;;;;;;;;;;;;24.92;30.96;102918.50;4996373;28;1072;-19
2022/12/19 02:40:54;;;;;;;;;;;;;;;24.67;31.44;102917.59;4994973;28;938;-19
2022/12/19 02:43:20;;;;;;;;;;;;;;;24.92;30.81;102923.88;4995173;28;2663;-19
2022/12/19 02:45:45;;;;;;;;;;;;;;;25.01;30.80;102925.88;4994970;28;1100;-19
2022/12/19 02:48:10;;;;;;;;;;;;;;;24.87;31.09;102926.91;4996929;28;1191;-19
2022/12/19 02:50:36;;;;;;;;;;;;;;;24.61;31.41;102929.66;5008582;28;994;-18
2022/12/19 02:53:02;;;;;;;;;;;;;;;24.82;30.85;102929.06;5002881;28;905;-19
2022/12/19 02:55:27;;;;;;;;;;;;;;;24.96;30.63;102933.44;5015796;28;992;-19
2022/12/19 02:58:01;;;;;;;;;;;;;;;24.99;30.46;102933.19;5016383;28;1101;-19
2022/12/19 03:00:27;;;;;;;;;;;;;;;24.79;31.29;102940.06;5015469;28;1961;-18
2022/12/19 03:03:02;;;;;;;;;;;;;;;24.83;30.87;102953.19;5014627;28;1156;-19
2022/12/19 03:05:46;;;;;;;;;;;;;;;24.93;30.64;102957.91;5015631;28;1112;-19
2022/12/19 03:08:29;;;;;;;;;;;;;;;24.80;31.15;102958.78;5016289;28;1032;-19
2022/12/19 03:10:59;;;;;;;;;;;;;;;24.64;31.04;102961.72;5015941;28;1184;-19
2022/12/19 03:13:25;;;;;;;;;;;;;;;24.86;30.55;102962.00;5011945;28;2507;-19
2022/12/19 03:15:50;;;;;;;;;;;;;;;24.97;30.56;102962.09;5014154;28;866;-19
2022/12/19 03:18:15;;;;;;;;;;;;;;;24.37;31.74;102962.78;5004552;28;1073;-19
2022/12/19 03:20:53;;;;;;;;;;;;;;;24.53;31.47;102981.34;5018874;28;1973;-19
2022/12/19 03:23:18;;;;;;;;;;;;;;;24.78;30.62;102986.78;5016629;28;1191;-19
2022/12/19 03:25:45;;;;;;;;;;;;;;;24.67;31.03;102985.72;5008141;28;1044;-19
2022/12/19 03:28:11;;;;;;;;;;;;;;;24.72;30.95;102977.34;5005175;28;1037;-19
2022/12/19 03:30:36;;;;;;;;;;;;;;;24.31;31.96;102974.81;5018308;28;1076;-19
2022/12/19 03:33:02;;;;;;;;;;;;;;;24.49;31.54;102992.47;5017905;28;1168;-19
2022/12/19 03:35:27;;;;;;;;;;;;;;;24.83;31.28;102984.59;5018070;28;1215;-19
2022/12/19 03:37:54;;;;;;;;;;;;;;;25.22;30.28;102989.88;5018472;28;1144;-19
2022/12/19 03:40:20;;;;;;;;;;;;;;;25.03;30.62;102985.88;5006033;28;1898;-19
2022/12/19 03:43:28;;;;;;;;;;;;;;;24.63;31.25;102978.84;5001457;28;2364;-19
2022/12/19 03:45:49;;;;;;;;;;;;;;;24.93;30.87;103000.97;5014009;28;1399;-19
2022/12/19 03:48:23;;;;;;;;;;;;;;;24.69;31.38;103002.63;5007500;28;1113;-19
2022/12/19 03:50:55;;;;;;;;;;;;;;;24.89;30.87;103007.53;5016513;28;1140;-19
2022/12/19 03:53:29;;;;;;;;;;;;;;;25.21;30.24;102998.06;5009554;28;822;-19
2022/12/19 03:55:57;;;;;;;;;;;;;;;25.23;30.01;103009.56;5013454;28;1074;-19
2022/12/19 03:58:31;;;;;;;;;;;;;;;24.78;31.05;103002.94;4998080;28;1038;-19
2022/12/19 04:00:56;;;;;;;;;;;;;;;25.21;29.92;103014.25;4998226;28;1101;-19
2022/12/19 04:03:21;;;;;;;;;;;;;;;25.48;29.61;103013.09;4998402;28;1088;-19
2022/12/19 04:05:47;;;;;;;;;;;;;;;25.32;29.72;103014.28;4999383;28;1080;-19
2022/12/19 04:08:12;;;;;;;;;;;;;;;25.33;29.61;103021.38;5010986;28;1042;-19
2022/12/19 04:10:40;;;;;;;;;;;;;;;25.31;29.60;103017.94;5017329;28;1162;-19
2022/12/19 04:13:07;;;;;;;;;;;;;;;25.55;29.93;103019.75;5002394;28;2561;-19
2022/12/19 04:15:53;;;;;;;;;;;;;;;25.07;30.23;103021.50;5016822;28;1140;-19
2022/12/19 04:18:18;;;;;;;;;;;;;;;25.13;30.02;103025.56;5009115;28;1545;-19
2022/12/19 04:20:44;;;;;;;;;;;;;;;25.16;30.01;103026.19;5005443;28;1975;-19
2022/12/19 04:23:14;;;;;;;;;;;;;;;25.07;30.65;103022.34;5002691;28;1061;-19
2022/12/19 04:25:41;;;;;;;;;;;;;;;25.09;30.10;103016.84;5006177;28;1081;-19
2022/12/19 04:28:12;;;;;;;;;;;;;;;24.94;30.02;103025.09;5013039;28;1036;-19
2022/12/19 04:30:37;;;;;;;;;;;;;;;24.93;30.25;103020.69;5009075;28;1016;-19
2022/12/19 04:33:03;;;;;;;;;;;;;;;24.90;30.61;103029.00;5013450;28;1109;-18
2022/12/19 04:35:28;;;;;;;;;;;;;;;24.89;30.18;103031.78;5018705;28;1167;-19
2022/12/19 04:37:53;;;;;;;;;;;;;;;24.87;30.19;103037.28;5018044;28;1109;-18
2022/12/19 04:40:19;;;;;;;;;;;;;;;24.93;30.44;103041.34;5009794;28;1905;-18
2022/12/19 04:42:44;;;;;;;;;;;;;;;25.02;30.44;103042.53;5001231;28;2469;-18
2022/12/19 04:45:09;;;;;;;;;;;;;;;24.87;30.78;103050.72;5008655;28;1044;-19
2022/12/19 04:47:35;;;;;;;;;;;;;;;24.86;30.50;103046.28;4998581;28;1093;-19
2022/12/19 04:50:00;;;;;;;;;;;;;;;24.47;25.44;103041.00;4998035;28;1095;-19
2022/12/19 04:52:25;;;;;;;;;;;;;;;23.24;27.30;103042.84;5013255;28;1096;-18
2022/12/19 04:54:50;;;;;;;;;;;;;;;22.94;25.16;103043.88;5018569;28;1105;-19
2022/12/19 04:57:16;;;;;;;;;;;;;;;23.46;24.36;103056.72;5017657;28;1119;-19
2022/12/19 04:59:41;;;;;;;;;;;;;;;24.09;23.78;103065.03;5017982;28;1919;-19
2022/12/19 05:02:06;;;;;;;;;;;;;;;24.64;24.11;103065.84;5017919;28;1068;-19
2022/12/19 05:04:31;;;;;;;;;;;;;;;25.21;23.74;103068.94;5017784;28;1096;-19
2022/12/19 05:06:57;;;;;;;;;;;;;;;25.40;24.13;103078.38;5017767;28;1124;-19
2022/12/19 05:09:22;;;;;;;;;;;;;;;24.86;24.97;103058.91;5017614;28;1104;-19
2022/12/19 05:11:47;;;;;;;;;;;;;;;25.02;25.78;103066.75;5017732;28;1850;-20
2022/12/19 05:14:14;;;;;;;;;;;;;;;25.35;25.09;103078.72;5017835;28;1005;-19
2022/12/19 05:16:39;;;;;;;;;;;;;;;25.61;25.09;103094.75;5017301;28;1085;-19
2022/12/19 05:19:05;;;;;;;;;;;;;;;25.42;25.60;103089.91;5017683;28;1914;-19
2022/12/19 05:21:30;;;;;;;;;;;;;;;25.56;25.67;103092.41;5017132;28;1072;-19
2022/12/19 05:23:55;;;;;;;;;;;;;;;25.71;25.70;103094.94;5018046;28;1136;-20
2022/12/19 05:26:20;;;;;;;;;;;;;;;25.45;26.23;103105.81;5017464;28;1060;-19
2022/12/19 05:28:46;;;;;;;;;;;;;;;25.38;26.38;103101.84;5016955;28;1135;-19
2022/12/19 05:31:15;;;;;;;;;;;;;;;25.37;26.91;103110.94;5015051;28;1785;-19
2022/12/19 05:33:41;;;;;;;;;;;;;;;25.34;26.86;103106.59;5016886;28;1179;-19
2022/12/19 05:36:07;;;;;;;;;;;;;;;25.34;26.98;103119.25;5017124;28;1124;-19
2022/12/19 05:38:32;;;;;;;;;;;;;;;25.27;27.56;103117.00;5017372;28;1969;-19
2022/12/19 05:40:58;;;;;;;;;;;;;;;25.66;26.86;103130.34;5016778;28;1130;-19
2022/12/19 05:43:23;;;;;;;;;;;;;;;25.34;27.30;103124.63;5017321;28;1175;-19
2022/12/19 05:45:49;;;;;;;;;;;;;;;26.46;25.94;103126.22;5003892;28;1421;-19
2022/12/19 05:48:14;;;;;;;;;;;;;;;26.92;25.50;103128.91;5017339;28;1048;-20
2022/12/19 05:50:39;;;;;;;;;;;;;;;26.85;25.83;103136.66;5016965;28;1139;-19
2022/12/19 05:53:05;;;;;;;;;;;;;;;26.80;25.75;103136.16;5017138;28;870;-19
2022/12/19 05:55:30;;;;;;;;;;;;;;;26.77;25.80;103143.53;5016924;28;1009;-19
2022/12/19 05:57:56;;;;;;;;;;;;;;;26.75;25.82;103139.22;5016920;28;1059;-19
2022/12/19 06:00:21;;;;;;;;;;;;;;;26.90;25.70;103147.94;5017330;28;1939;-19
2022/12/19 06:02:46;;;;;;;;;;;;;;;26.99;25.79;103143.66;5009646;28;1032;-19
2022/12/19 06:05:12;;;;;;;;;;;;;;;27.07;25.50;103148.47;5010839;28;1036;-19
2022/12/19 06:07:37;;;;;;;;;;;;;;;27.18;25.71;103153.84;5016909;28;1125;-20
2022/12/19 06:10:03;;;;;;;;;;;;;;;27.54;25.37;103153.66;5016653;28;1135;-20
2022/12/19 06:12:28;;;;;;;;;;;;;;;27.70;24.91;103163.22;5016719;28;1176;-18
2022/12/19 06:14:53;;;;;;;;;;;;;;;27.85;24.57;103174.59;5002585;28;1087;-19
2022/12/19 06:17:19;;;;;;;;;;;;;;;28.02;24.47;103175.88;5004631;28;1051;-19
2022/12/19 06:19:44;;;;;;;;;;;;;;;28.24;24.26;103177.59;5016282;28;1910;-19
2022/12/19 06:22:09;;;;;;;;;;;;;;;28.30;24.01;103183.47;5016516;28;1162;-19
2022/12/19 06:24:34;;;;;;;;;;;;;;;27.97;24.62;103184.41;5016500;28;1196;-19
2022/12/19 06:27:00;;;;;;;;;;;;;;;27.97;24.85;103181.69;5016270;28;1152;-19
2022/12/19 06:29:25;;;;;;;;;;;;;;;28.23;24.32;103200.25;5016205;28;1156;-19
2022/12/19 06:31:50;;;;;;;;;;;;;;;28.09;24.09;103196.00;5016761;28;1143;-19
2022/12/19 06:34:15;;;;;;;;;;;;;;;27.64;24.79;103194.31;5015719;28;1064;-19
2022/12/19 06:36:41;;;;;;;;;;;;;;;27.35;25.58;103206.53;5004145;28;1151;-19
2022/12/19 06:39:06;;;;;;;;;;;;;;;27.51;25.15;103210.66;5016513;28;1955;-19
2022/12/19 06:44:16;;;;;;;;;;;;;;;27.22;24.39;103213.91;5016666;28;1231;-19
2022/12/19 06:46:41;;;;;;;;;;;;;;;26.73;24.71;103208.69;5016109;28;1188;-19
2022/12/19 06:49:07;;;;;;;;;;;;;;;26.81;24.62;103213.50;5016155;28;1028;-19
2022/12/19 06:51:32;;;;;;;;;;;;;;;26.98;24.30;103212.16;5016620;28;1076;-19
2022/12/19 06:53:58;;;;;;;;;;;;;;;27.18;24.00;103225.94;5016060;28;1147;-19
2022/12/19 06:56:23;;;;;;;;;;;;;;;27.45;23.82;103217.44;5015874;28;1068;-20
2022/12/19 06:58:49;;;;;;;;;;;;;;;27.43;23.68;103227.53;5014069;28;1898;-18
2022/12/19 07:01:17;;;;;;;;;;;;;;;27.72;23.64;103220.75;5012520;28;1035;-18
2022/12/19 07:03:42;;;;;;;;;;;;;;;27.92;23.15;103229.91;5014959;28;1043;-33
2022/12/19 07:06:07;;;;;;;;;;;;;;;28.06;23.25;103236.84;5007832;28;1085;-35
2022/12/19 07:08:32;;;;;;;;;;;;;;;28.21;23.43;103237.41;5016241;28;1160;-36
2022/12/19 07:10:58;;;;;;;;;;;;;;;28.35;23.39;103247.09;5002757;28;1140;-37
2022/12/19 07:13:23;;;;;;;;;;;;;;;28.42;23.21;103244.72;5015896;28;1102;-35
2022/12/19 07:15:49;;;;;;;;;;;;;;;28.92;22.76;103248.59;5008440;28;1069;-35
2022/12/19 07:18:14;;;;;;;;;;;;;;;29.07;22.61;103256.41;4996140;28;1296;-33
2022/12/19 07:20:41;;;;;;;;;;;;;;;28.96;22.68;103258.16;5007909;28;1902;-33
2022/12/19 07:23:06;;;;;;;;;;;;;;;29.00;23.01;103260.63;5008272;28;1141;-34
2022/12/19 07:25:31;;;;;;;;;;;;;;;29.02;23.09;103264.94;5003984;28;1412;-32
2022/12/19 07:27:57;;;;;;;;;;;;;;;29.25;22.78;103264.75;5002807;28;1298;-36
2022/12/19 07:30:22;;;;;;;;;;;;;;;29.21;22.93;103261.44;5008623;28;996;-20
2022/12/19 07:32:47;;;;;;;;;;;;;;;28.41;24.02;103264.66;5001661;28;1128;-20
2022/12/19 07:35:13;;;;;;;;;;;;;;;28.25;24.64;103262.38;5003875;28;1065;-36
2022/12/19 07:37:38;;;;;;;;;;;;;;;28.46;24.30;103269.69;5014635;28;1040;-36
2022/12/19 07:40:04;;;;;;;;;;;;;;;26.99;23.98;103270.63;5012541;28;1902;-35
2022/12/19 07:42:29;;;;;;;;;;;;;;;25.45;23.45;103264.81;5014823;28;1011;-35
2022/12/19 07:44:55;;;;;;;;;;;;;;;25.91;21.52;103266.00;5015924;28;1406;-32
2022/12/19 07:47:20;;;;;;;;;;;;;;;27.23;20.08;103269.66;5014702;28;1053;-31
2022/12/19 07:49:45;;;;;;;;;;;;;;;27.53;20.35;103275.44;5002492;28;1057;-34
2022/12/19 07:52:10;;;;;;;;;;;;;;;27.93;20.34;103279.44;5013638;28;1097;-35
2022/12/19 07:54:36;;;;;;;;;;;;;;;28.08;20.24;103278.19;5003889;28;997;-32
2022/12/19 07:57:01;;;;;;;;;;;;;;;28.32;20.45;103276.25;5015670;28;1097;-35
2022/12/19 07:59:26;;;;;;;;;;;;;;;28.53;20.24;103286.28;5013039;28;1953;-19
2022/12/19 08:01:51;;;;;;;;;;;;;;;28.80;20.24;103285.75;5011364;28;1036;-20
2022/12/19 08:04:17;;;;;;;;;;;;;;;29.37;20.19;103289.03;5006959;28;1050;-20
2022/12/19 08:06:42;;;;;;;;;;;;;;;29.73;19.94;103294.06;5016155;28;1330;-19
2022/12/19 08:09:07;;;;;;;;;;;;;;;29.48;20.28;103294.34;5017274;28;1084;-19
2022/12/19 08:11:33;;;;;;;;;;;;;;;29.81;20.48;103296.94;5007678;28;1048;-19
2022/12/19 08:13:58;;;;;;;;;;;;;;;29.90;20.24;103300.63;5018681;28;1091;-18
2022/12/19 08:16:24;;;;;;;;;;;;;;;29.43;20.81;103296.63;5014108;28;1172;-18
2022/12/19 08:18:49;;;;;;;;;;;;;;;28.98;21.76;103296.00;5018207;28;1973;-18
2022/12/19 08:21:14;;;;;;;;;;;;;;;29.53;21.35;103305.66;5016746;28;1041;-38
2022/12/19 08:23:41;;;;;;;;;;;;;;;29.89;20.95;103309.78;5014793;28;1349;-38
2022/12/19 08:26:07;;;;;;;;;;;;;;;29.16;21.81;103301.66;5018472;28;1279;-39
2022/12/19 08:28:32;;;;;;;;;;;;;;;28.34;23.14;103295.97;5015526;28;1058;-38
2022/12/19 08:30:59;;;;;;;;;;;;;;;28.22;23.56;103297.81;5013013;28;1201;-38
2022/12/19 08:33:24;;;;;;;;;;;;;;;28.43;22.01;103287.06;5018232;28;1164;-40
2022/12/19 08:35:50;;;;;;;;;;;;;;;29.04;20.64;103290.06;5018410;28;1263;-41
2022/12/19 08:38:15;;;;;;;;;;;;;;;28.93;18.16;103284.66;5018332;28;1251;-40
2022/12/19 08:40:40;;;;;;;;;;;;;;;28.58;16.67;103287.59;5018039;28;1910;-39
2022/12/19 08:43:06;;;;;;;;;;;;;;;28.08;15.66;103280.88;5014979;28;1255;-39
2022/12/19 08:45:31;;;;;;;;;;;;;;;27.74;16.02;103287.22;5013123;28;1192;-20
2022/12/19 08:47:56;;;;;;;;;;;;;;;27.43;15.10;103286.13;5011742;28;1318;-20
2022/12/19 08:50:21;;;;;;;;;;;;;;;27.00;15.64;103285.81;5012971;28;1310;-20
2022/12/19 08:52:47;;;;;;;;;;;;;;;26.82;16.07;103285.44;5007594;28;1246;-19
2022/12/19 08:55:12;;;;;;;;;;;;;;;26.71;16.51;103289.81;5015533;28;1109;-19
2022/12/19 08:57:37;;;;;;;;;;;;;;;26.87;15.52;103281.41;5018316;28;1248;-19
2022/12/19 09:00:03;;;;;;;;;;;;;;;26.96;14.72;103281.66;5018015;28;1910;-20
2022/12/19 09:02:29;;;;;;;;;;;;;;;26.90;15.55;103275.75;5017886;28;1071;-19
2022/12/19 09:04:54;;;;;;;;;;;;;;;26.93;14.87;103269.25;5018594;28;1107;-19
2022/12/19 09:07:19;;;;;;;;;;;;;;;26.63;14.58;103270.66;5017730;28;1079;-20
2022/12/19 09:09:45;;;;;;;;;;;;;;;26.55;14.83;103271.25;5007766;28;1211;-19
2022/12/19 09:12:11;;;;;;;;;;;;;;;26.81;16.66;103272.91;5014855;28;1093;-20
2022/12/19 09:14:36;;;;;;;;;;;;;;;27.08;17.32;103264.50;5017527;28;1070;-19
2022/12/19 09:17:01;;;;;;;;;;;;;;;27.22;17.88;103263.41;5012843;28;1084;-19
2022/12/19 09:19:27;;;;;;;;;;;;;;;27.35;17.75;103265.13;5009549;28;1914;-20
2022/12/19 09:21:52;;;;;;;;;;;;;;;27.42;18.13;103255.56;5004457;28;1140;-19
2022/12/19 09:24:17;;;;;;;;;;;;;;;27.52;18.24;103250.25;5017774;28;1170;-20
2022/12/19 09:26:44;;;;;;;;;;;;;;;27.59;18.49;103243.34;5017274;28;1072;-20
2022/12/19 09:29:10;;;;;;;;;;;;;;;27.37;21.97;103246.94;5007287;28;1239;-20
2022/12/19 09:31:35;;;;;;;;;;;;;;;27.23;23.06;103243.50;4998119;28;1064;-20
2022/12/19 09:34:00;;;;;;;;;;;;;;;27.24;22.65;103253.31;5008521;28;1145;-20
2022/12/19 09:36:25;;;;;;;;;;;;;;;27.15;22.82;103243.25;5017615;28;1077;-20
2022/12/19 09:38:54;;;;;;;;;;;;;;;27.19;22.83;103247.47;5017294;28;1906;-20
2022/12/19 09:41:38;;;;;;;;;;;;;;;27.16;23.31;103246.84;5004491;28;1159;-19
2022/12/19 09:44:21;;;;;;;;;;;;;;;27.12;23.13;103246.22;5016933;28;873;-19
2022/12/19 09:46:49;;;;;;;;;;;;;;;27.16;23.33;103242.28;5017343;28;1230;-19
2022/12/19 09:49:25;;;;;;;;;;;;;;;27.30;23.25;103235.78;5017167;28;1125;-20
2022/12/19 09:52:01;;;;;;;;;;;;;;;27.32;22.96;103231.09;5005655;28;1149;-19
2022/12/19 09:54:34;;;;;;;;;;;;;;;27.31;23.39;103226.66;5015874;28;1128;-20
2022/12/19 09:57:01;;;;;;;;;;;;;;;27.36;23.11;103219.06;5004767;28;1128;-19
2022/12/19 09:59:29;;;;;;;;;;;;;;;27.42;23.38;103201.50;5017016;28;1902;-19
2022/12/19 10:01:56;;;;;;;;;;;;;;;27.42;23.07;103204.19;5016246;28;1088;-19
2022/12/19 10:04:23;;;;;;;;;;;;;;;27.46;23.34;103200.25;5007348;28;1093;-19
2022/12/19 10:06:49;;;;;;;;;;;;;;;27.46;23.44;103199.41;5015420;28;1279;-19
2022/12/19 10:09:16;;;;;;;;;;;;;;;27.42;23.28;103187.97;5016649;28;1304;-20
2022/12/19 10:11:55;;;;;;;;;;;;;;;27.51;23.38;103187.19;5015773;28;1119;-19
2022/12/19 10:14:21;;;;;;;;;;;;;;;27.51;23.00;103189.03;5016227;28;1036;-19
2022/12/19 10:16:55;;;;;;;;;;;;;;;27.51;23.08;103173.69;5014596;28;1032;-19
2022/12/19 10:19:21;;;;;;;;;;;;;;;27.54;23.12;103175.28;5007267;28;1907;-20
2022/12/19 10:21:46;;;;;;;;;;;;;;;27.63;22.90;103168.25;5003580;28;1164;-19
2022/12/19 10:24:30;;;;;;;;;;;;;;;27.59;23.33;103174.91;5006345;28;1215;-19
2022/12/19 10:26:58;;;;;;;;;;;;;;;27.65;22.99;103171.69;5016179;28;1144;-19
2022/12/19 10:29:30;;;;;;;;;;;;;;;27.63;23.25;103174.53;5000063;28;1593;-19
2022/12/19 10:31:58;;;;;;;;;;;;;;;27.45;23.44;103168.78;5011202;28;1029;-19
2022/12/19 10:34:27;;;;;;;;;;;;;;;27.39;23.31;103172.00;5016539;28;1121;-19
2022/12/19 10:36:54;;;;;;;;;;;;;;;27.37;23.35;103169.44;5014712;28;1037;-20
2022/12/19 10:39:38;;;;;;;;;;;;;;;27.36;22.92;103164.16;5013204;28;1894;-19
2022/12/19 10:42:21;;;;;;;;;;;;;;;27.23;23.20;103158.88;5014166;28;1157;-19
2022/12/19 10:44:47;;;;;;;;;;;;;;;27.15;22.69;103154.09;5003188;28;1144;-19
2022/12/19 10:47:15;;;;;;;;;;;;;;;27.06;23.07;103154.88;5016429;28;1064;-19
2022/12/19 10:49:41;;;;;;;;;;;;;;;27.04;22.85;103157.69;5015845;28;1227;-19
2022/12/19 10:52:06;;;;;;;;;;;;;;;27.11;22.82;103149.94;5016115;28;1220;-19
2022/12/19 10:54:36;;;;;;;;;;;;;;;27.38;22.35;103152.22;5014093;28;1204;-20
2022/12/19 10:57:17;;;;;;;;;;;;;;;27.46;21.94;103159.69;5011251;28;1132;-19
2022/12/19 10:59:52;;;;;;;;;;;;;;;27.67;21.79;103156.19;5015581;28;1902;-19
2022/12/19 11:02:23;;;;;;;;;;;;;;;27.51;22.31;103154.75;5016663;28;1048;-19
2022/12/19 11:04:48;;;;;;;;;;;;;;;27.54;22.51;103152.81;5009566;28;1121;-19
2022/12/19 11:07:16;;;;;;;;;;;;;;;27.46;22.69;103145.34;5015788;28;1020;-19
2022/12/19 11:09:42;;;;;;;;;;;;;;;27.78;22.35;103151.78;5015851;28;1211;-19
2022/12/19 11:12:10;;;;;;;;;;;;;;;27.79;22.33;103137.25;5015639;28;1086;-19
2022/12/19 11:14:36;;;;;;;;;;;;;;;27.94;22.35;103154.91;5014917;28;1110;-36
2022/12/19 11:17:01;;;;;;;;;;;;;;;28.09;22.46;103141.06;5014247;28;1324;-36
2022/12/19 11:19:36;;;;;;;;;;;;;;;28.06;22.48;103149.44;5007690;28;1979;-33
2022/12/19 11:22:03;;;;;;;;;;;;;;;28.12;22.63;103148.91;4998261;28;1073;-32
2022/12/19 11:24:30;;;;;;;;;;;;;;;28.23;22.55;103148.84;5008332;28;1539;-34
2022/12/19 11:26:56;;;;;;;;;;;;;;;28.38;22.45;103143.09;5001418;28;1152;-33
2022/12/19 11:29:37;;;;;;;;;;;;;;;28.36;22.46;103142.41;5015974;28;1267;-33
2022/12/19 11:32:02;;;;;;;;;;;;;;;28.49;22.10;103142.19;5014660;28;1104;-35
2022/12/19 11:34:28;;;;;;;;;;;;;;;28.33;22.18;103131.81;5016171;28;1106;-33
2022/12/19 11:36:56;;;;;;;;;;;;;;;28.16;22.37;103135.97;5010676;28;1457;-36
2022/12/19 11:39:45;;;;;;;;;;;;;;;28.07;22.36;103137.59;5002349;28;1971;-18
2022/12/19 11:42:13;;;;;;;;;;;;;;;28.03;22.69;103138.88;5014655;28;1475;-19
2022/12/19 11:44:44;;;;;;;;;;;;;;;28.03;22.71;103139.72;5019148;28;858;-19
2022/12/19 11:47:28;;;;;;;;;;;;;;;28.11;22.73;103145.31;5005403;28;1478;-19
2022/12/19 11:50:00;;;;;;;;;;;;;;;28.05;22.55;103145.88;5019537;28;1059;-19
2022/12/19 11:52:28;;;;;;;;;;;;;;;28.01;22.95;103135.44;5014543;28;1417;-19
2022/12/19 11:54:55;;;;;;;;;;;;;;;28.06;22.56;103135.91;5017230;28;1140;-19
2022/12/19 11:57:20;;;;;;;;;;;;;;;28.14;22.52;103138.81;5015108;28;1023;-19
2022/12/19 11:59:46;;;;;;;;;;;;;;;28.11;22.44;103137.22;5018480;28;1960;-19
2022/12/19 12:02:30;;;;;;;;;;;;;;;28.17;22.69;103138.53;5018991;28;1204;-19
2022/12/19 12:04:58;;;;;;;;;;;;;;;28.34;22.58;103134.38;5019408;28;1119;-19
2022/12/19 12:07:23;;;;;;;;;;;;;;;28.42;22.18;103139.16;5001560;28;1155;-19
2022/12/19 12:10:09;;;;;;;;;;;;;;;28.32;22.62;103140.91;5010296;28;1200;-19
2022/12/19 12:12:46;;;;;;;;;;;;;;;27.71;23.41;103146.03;5018430;28;1049;-19
2022/12/19 12:15:15;;;;;;;;;;;;;;;27.64;24.11;103145.66;5016336;28;1493;-19
2022/12/19 12:17:48;;;;;;;;;;;;;;;27.84;23.16;103143.97;5015635;28;1278;-19
2022/12/19 12:20:20;;;;;;;;;;;;;;;27.94;22.91;103152.19;5015926;28;1911;-19
2022/12/19 12:22:57;;;;;;;;;;;;;;;28.10;22.36;103145.47;5014132;28;1243;-19
2022/12/19 12:25:23;;;;;;;;;;;;;;;27.85;19.47;103148.41;5006880;28;1388;-19
2022/12/19 12:27:51;;;;;;;;;;;;;;;27.71;25.42;103154.97;5017897;28;1442;-19
2022/12/19 12:30:20;;;;;;;;;;;;;;;27.69;27.30;103148.84;5018671;28;1307;-19
2022/12/19 12:33:04;;;;;;;;;;;;;;;27.61;26.65;103152.16;5015522;28;1279;-19
2022/12/19 12:35:38;;;;;;;;;;;;;;;27.62;25.86;103150.31;5016263;28;1117;-19
2022/12/19 12:38:22;;;;;;;;;;;;;;;27.66;24.44;103161.75;5012177;28;1053;-19
2022/12/19 12:41:06;;;;;;;;;;;;;;;27.46;22.87;103156.97;5014394;28;1894;-18
2022/12/19 12:43:43;;;;;;;;;;;;;;;27.38;23.30;103160.34;5017638;28;1035;-19
2022/12/19 12:46:11;;;;;;;;;;;;;;;27.42;23.16;103146.56;5005499;28;1100;-19
2022/12/19 12:48:37;;;;;;;;;;;;;;;27.26;22.85;103145.97;5017494;28;1036;-19
2022/12/19 12:51:03;;;;;;;;;;;;;;;27.40;22.78;103162.91;5001568;28;1017;-18
2022/12/19 12:53:35;;;;;;;;;;;;;;;27.47;22.41;103155.16;5015538;28;1196;-18